Time;durP1;ratioP1;P1;durP2;ratioP2;P2;SDS_P1;SDS_P2;PMS_P1;PMS_P2;Temp;Humidity;BMP_temperature;BMP_pressure;BME280_temperature;BME280_humidity;BME280_pressure;Samples;Min_cycle;Max_cycle;Signal;HPM_P1;HPM_P2
2022/08/21 00:00:47;;;;;;;2.10;1.30;;;16.00;94.20;;;;;;5076848;28;20707;-83
2022/08/21 00:03:15;;;;;;;1.40;1.30;;;15.90;94.80;;;;;;5085250;28;20635;-82
2022/08/21 00:05:44;;;;;;;1.37;1.30;;;15.90;94.40;;;;;;5082029;28;20724;-81
2022/08/21 00:08:10;;;;;;;0.97;0.77;;;15.90;94.00;;;;;;5073853;28;21254;-83
2022/08/21 00:10:38;;;;;;;1.03;0.93;;;15.90;93.50;;;;;;5083082;28;21088;-83
2022/08/21 00:13:06;;;;;;;1.10;1.10;;;15.90;93.50;;;;;;5073461;28;20609;-85
2022/08/21 00:15:36;;;;;;;1.30;1.20;;;15.90;94.30;;;;;;5068431;28;20620;-81
2022/08/21 00:18:04;;;;;;;1.13;0.93;;;15.90;93.70;;;;;;5087230;28;20720;-83
2022/08/21 00:20:31;;;;;;;1.53;1.03;;;15.80;94.80;;;;;;5079985;28;20665;-83
2022/08/21 00:22:58;;;;;;;1.67;1.57;;;15.70;95.10;;;;;;5075823;28;21127;-84
2022/08/21 00:25:25;;;;;;;1.53;1.43;;;15.80;95.40;;;;;;5085218;28;20678;-81
2022/08/21 00:27:52;;;;;;;1.00;1.00;;;15.70;95.30;;;;;;5072950;28;20697;-82
2022/08/21 00:30:21;;;;;;;0.70;0.70;;;15.70;95.70;;;;;;5083806;28;20633;-81
2022/08/21 00:32:50;;;;;;;1.23;1.20;;;15.60;95.60;;;;;;5079072;28;20655;-83
2022/08/21 00:35:19;;;;;;;1.30;1.10;;;15.60;95.30;;;;;;5075473;28;20659;-82
2022/08/21 00:37:46;;;;;;;1.20;1.10;;;15.60;95.40;;;;;;5080424;28;20762;-85
2022/08/21 00:40:15;;;;;;;1.30;1.07;;;15.60;94.90;;;;;;5072479;28;20652;-82
2022/08/21 00:42:43;;;;;;;1.40;1.30;;;15.60;94.60;;;;;;5077772;28;20691;-82
2022/08/21 00:45:11;;;;;;;3.00;1.40;;;15.60;94.90;;;;;;5076458;28;20631;-82
2022/08/21 00:47:38;;;;;;;1.20;1.10;;;15.60;95.80;;;;;;5086499;28;20624;-83
2022/08/21 00:50:14;;;;;;;1.40;1.30;;;15.50;95.90;;;;;;5071375;28;21214;-81
2022/08/21 00:52:43;;;;;;;1.07;0.80;;;15.40;95.70;;;;;;5074837;28;20716;-81
2022/08/21 00:55:11;;;;;;;0.93;0.93;;;15.40;95.90;;;;;;5068138;28;20675;-82
2022/08/21 00:57:41;;;;;;;2.37;1.30;;;15.40;95.80;;;;;;5076532;28;20653;-84
2022/08/21 01:00:12;;;;;;;1.83;1.20;;;15.30;96.30;;;;;;5075996;28;20622;-83
2022/08/21 01:02:39;;;;;;;2.10;1.20;;;15.30;96.60;;;;;;5070277;28;20705;-85
2022/08/21 01:05:08;;;;;;;1.77;1.03;;;15.30;96.40;;;;;;5085293;28;20682;-83
2022/08/21 01:07:35;;;;;;;1.00;0.90;;;15.40;95.50;;;;;;5079712;28;20721;-82
2022/08/21 01:10:03;;;;;;;1.57;1.47;;;15.30;96.50;;;;;;5069965;28;20710;-82
2022/08/21 01:12:30;;;;;;;1.10;1.00;;;15.30;96.30;;;;;;5081228;28;20720;-82
2022/08/21 01:14:58;;;;;;;1.20;1.10;;;15.20;96.30;;;;;;5067388;28;21203;-80
2022/08/21 01:17:28;;;;;;;1.30;1.20;;;15.20;96.30;;;;;;5076798;28;20631;-81
2022/08/21 01:19:58;;;;;;;2.40;1.67;;;15.10;96.30;;;;;;5087424;28;20604;-82
2022/08/21 01:22:27;;;;;;;1.20;1.10;;;15.10;96.50;;;;;;5075856;28;21233;-81
2022/08/21 01:24:55;;;;;;;1.60;1.50;;;15.10;96.30;;;;;;5071140;28;20613;-80
2022/08/21 01:27:23;;;;;;;0.80;0.80;;;15.10;95.90;;;;;;5069793;28;21187;-84
2022/08/21 01:29:57;;;;;;;2.10;1.83;;;15.10;95.40;;;;;;5070544;28;20770;-82
2022/08/21 01:32:25;;;;;;;1.80;1.70;;;15.00;95.40;;;;;;5086145;28;20652;-83
2022/08/21 01:34:53;;;;;;;1.50;1.37;;;15.00;95.50;;;;;;5082150;28;20625;-81
2022/08/21 01:37:23;;;;;;;1.50;1.40;;;12.50;95.00;;;;;;5088658;28;20624;-82
2022/08/21 01:39:53;;;;;;;1.20;1.00;;;14.80;96.80;;;;;;5075523;28;20663;-81
2022/08/21 01:42:21;;;;;;;1.30;1.20;;;14.80;96.30;;;;;;5072950;28;20660;-85
2022/08/21 01:44:48;;;;;;;1.53;1.33;;;14.90;96.70;;;;;;5084903;28;21277;-83
2022/08/21 01:47:17;;;;;;;1.40;1.30;;;14.80;97.00;;;;;;5070516;28;20724;-80
2022/08/21 01:49:46;;;;;;;1.67;1.57;;;14.70;97.40;;;;;;5070626;28;21062;-81
2022/08/21 01:52:14;;;;;;;1.50;1.30;;;14.70;97.20;;;;;;5082210;28;20625;-83
2022/08/21 01:54:42;;;;;;;1.07;0.97;;;14.70;97.10;;;;;;5071572;28;20629;-82
2022/08/21 01:57:12;;;;;;;1.57;1.40;;;14.70;97.40;;;;;;5071783;28;20742;-83
2022/08/21 01:59:40;;;;;;;2.67;1.27;;;14.70;97.40;;;;;;5072151;28;20647;-80
2022/08/21 02:02:07;;;;;;;2.70;1.57;;;14.70;96.90;;;;;;5070428;28;21243;-85
2022/08/21 02:04:34;;;;;;;2.07;1.87;;;14.70;96.60;;;;;;5082643;28;20619;-81
2022/08/21 02:07:02;;;;;;;1.20;1.10;;;14.70;96.40;;;;;;5079028;28;20622;-80
2022/08/21 02:09:29;;;;;;;1.67;1.33;;;14.60;96.50;;;;;;5070086;28;20664;-84
2022/08/21 02:11:57;;;;;;;1.20;1.10;;;14.60;97.20;;;;;;5082871;28;20639;-84
2022/08/21 02:14:25;;;;;;;1.33;1.13;;;14.60;97.30;;;;;;5070044;28;20732;-83
2022/08/21 02:16:53;;;;;;;1.13;1.03;;;14.60;97.50;;;;;;5086626;28;20656;-81
2022/08/21 02:19:20;;;;;;;1.00;1.00;;;14.50;97.20;;;;;;5069667;28;21022;-80
2022/08/21 02:21:48;;;;;;;2.10;1.90;;;14.50;97.50;;;;;;5088390;28;20667;-81
2022/08/21 02:24:17;;;;;;;1.80;1.70;;;14.40;97.70;;;;;;5079547;28;20643;-83
2022/08/21 02:26:46;;;;;;;1.80;1.40;;;14.40;97.60;;;;;;5086058;28;20626;-82
2022/08/21 02:29:13;;;;;;;1.07;0.97;;;14.40;97.20;;;;;;5089847;28;20639;-82
2022/08/21 02:31:42;;;;;;;2.57;2.37;;;14.40;97.50;;;;;;5081374;28;21019;-80
2022/08/21 02:34:10;;;;;;;2.90;1.77;;;14.40;98.00;;;;;;5081647;28;20621;-80
2022/08/21 02:36:38;;;;;;;2.30;2.10;;;14.30;98.00;;;;;;5070274;28;20992;-81
2022/08/21 02:39:06;;;;;;;1.93;1.70;;;14.40;98.60;;;;;;5079150;28;20658;-83
2022/08/21 02:41:34;;;;;;;1.70;1.60;;;14.20;98.50;;;;;;5072356;28;20649;-81
2022/08/21 02:44:01;;;;;;;1.30;1.20;;;14.20;98.40;;;;;;5087096;28;20701;-83
2022/08/21 02:46:30;;;;;;;1.60;1.50;;;14.30;98.30;;;;;;5082900;28;21198;-82
2022/08/21 02:48:59;;;;;;;1.53;1.43;;;14.30;98.00;;;;;;5090050;28;20704;-83
2022/08/21 02:51:27;;;;;;;2.13;1.50;;;14.30;97.60;;;;;;5074918;28;20616;-83
2022/08/21 02:53:55;;;;;;;1.53;1.43;;;14.30;97.70;;;;;;5088013;28;20632;-82
2022/08/21 02:56:23;;;;;;;1.80;1.70;;;14.30;97.00;;;;;;5079242;28;20630;-80
2022/08/21 02:58:53;;;;;;;1.50;1.17;;;14.30;96.70;;;;;;5079504;28;20628;-84
2022/08/21 03:01:20;;;;;;;1.10;1.10;;;14.20;96.80;;;;;;5079481;28;20667;-81
2022/08/21 03:03:50;;;;;;;1.50;1.40;;;14.20;97.80;;;;;;5079848;28;20703;-84
2022/08/21 03:06:21;;;;;;;2.00;1.20;;;14.30;98.10;;;;;;5068963;28;21019;-82
2022/08/21 03:08:48;;;;;;;1.53;1.10;;;14.20;98.20;;;;;;5086531;28;20727;-84
2022/08/21 03:11:16;;;;;;;1.97;1.87;;;14.20;97.40;;;;;;5083858;28;20668;-80
2022/08/21 03:13:43;;;;;;;2.53;1.60;;;14.20;97.40;;;;;;5088156;28;20617;-83
2022/08/21 03:16:10;;;;;;;1.20;0.87;;;14.20;97.20;;;;;;5089417;28;20605;-81
2022/08/21 03:18:38;;;;;;;1.70;1.30;;;14.30;97.30;;;;;;5087830;28;21226;-82
2022/08/21 03:21:05;;;;;;;1.10;1.03;;;14.30;97.40;;;;;;5089088;28;20683;-82
2022/08/21 03:23:34;;;;;;;1.30;1.20;;;14.30;98.00;;;;;;5078661;28;20630;-81
2022/08/21 03:26:01;;;;;;;1.37;1.27;;;14.20;98.50;;;;;;5082632;28;21163;-82
2022/08/21 03:28:28;;;;;;;1.77;1.60;;;14.00;98.80;;;;;;5079262;28;21067;-81
2022/08/21 03:30:56;;;;;;;3.40;1.87;;;14.00;98.90;;;;;;5088351;28;21187;-80
2022/08/21 03:33:23;;;;;;;1.03;0.93;;;14.00;99.40;;;;;;5076757;28;20648;-85
2022/08/21 03:35:57;;;;;;;2.80;1.60;;;14.00;99.70;;;;;;5082639;28;20632;-84
2022/08/21 03:38:25;;;;;;;1.63;1.47;;;14.00;99.90;;;;;;5066952;28;20720;-83
2022/08/21 03:40:53;;;;;;;2.23;1.63;;;13.90;99.90;;;;;;5068289;28;20633;-82
2022/08/21 03:43:20;;;;;;;0.97;0.97;;;14.00;99.50;;;;;;5067408;28;20673;-84
2022/08/21 03:45:47;;;;;;;2.20;1.00;;;14.00;99.00;;;;;;5067993;28;20626;-83
2022/08/21 03:48:14;;;;;;;1.20;1.10;;;14.00;99.30;;;;;;5067181;28;21075;-80
2022/08/21 03:50:43;;;;;;;1.03;1.03;;;13.90;99.00;;;;;;5067663;28;20645;-81
2022/08/21 03:53:12;;;;;;;2.50;2.30;;;14.10;99.20;;;;;;5067723;28;20729;-82
2022/08/21 03:55:39;;;;;;;1.13;1.03;;;13.90;99.40;;;;;;5068149;28;20684;-81
2022/08/21 03:58:07;;;;;;;0.87;0.87;;;13.90;99.20;;;;;;5066404;28;20649;-82
2022/08/21 04:00:35;;;;;;;1.93;1.77;;;13.90;98.40;;;;;;5067795;28;20621;-83
2022/08/21 04:03:01;;;;;;;1.50;1.40;;;13.90;98.00;;;;;;5067692;28;20666;-83
2022/08/21 04:05:29;;;;;;;2.00;1.90;;;13.90;98.60;;;;;;5067514;28;20732;-80
2022/08/21 04:07:58;;;;;;;1.93;1.70;;;13.80;98.60;;;;;;5067453;28;20772;-81
2022/08/21 04:10:26;;;;;;;6.87;1.53;;;13.90;98.20;;;;;;5071784;28;20614;-80
2022/08/21 04:12:53;;;;;;;3.13;1.43;;;13.80;98.00;;;;;;5085778;28;20752;-80
2022/08/21 04:15:23;;;;;;;1.43;1.33;;;13.80;98.60;;;;;;5088269;28;21178;-79
2022/08/21 04:17:50;;;;;;;2.20;1.40;;;13.80;99.20;;;;;;5068667;28;21242;-85
2022/08/21 04:20:18;;;;;;;1.50;1.40;;;13.70;99.30;;;;;;5067961;28;20656;-82
2022/08/21 04:22:45;;;;;;;3.03;1.53;;;13.60;99.70;;;;;;5082758;28;20726;-80
2022/08/21 04:25:13;;;;;;;3.50;1.90;;;13.50;99.80;;;;;;5085114;28;20625;-82
2022/08/21 04:27:40;;;;;;;1.43;1.33;;;13.70;99.00;;;;;;5077486;28;20663;-83
2022/08/21 04:30:08;;;;;;;1.03;1.00;;;13.70;99.60;;;;;;5072788;28;20637;-83
2022/08/21 04:32:37;;;;;;;2.47;1.57;;;13.70;99.90;;;;;;5084362;28;20633;-80
2022/08/21 04:35:08;;;;;;;0.93;0.93;;;13.70;99.90;;;;;;5076517;28;20614;-81
2022/08/21 04:37:35;;;;;;;1.40;1.30;;;13.50;99.90;;;;;;5069545;28;20626;-81
2022/08/21 04:40:03;;;;;;;1.57;1.40;;;13.50;99.90;;;;;;5086755;28;20981;-82
2022/08/21 04:42:30;;;;;;;1.97;1.87;;;13.60;99.40;;;;;;5081939;28;20718;-80
2022/08/21 04:44:57;;;;;;;3.83;1.50;;;13.70;99.10;;;;;;5084877;28;21017;-82
2022/08/21 04:47:25;;;;;;;1.63;1.53;;;13.60;98.80;;;;;;5085859;28;21224;-84
2022/08/21 04:49:53;;;;;;;2.23;1.23;;;13.70;98.60;;;;;;5087820;28;20747;-82
2022/08/21 04:52:23;;;;;;;1.60;1.07;;;13.60;99.70;;;;;;5079594;28;20810;-82
2022/08/21 04:54:52;;;;;;;1.40;1.23;;;13.70;99.90;;;;;;5068126;28;20669;-81
2022/08/21 04:57:20;;;;;;;1.67;1.57;;;13.60;99.90;;;;;;5082565;28;20967;-82
2022/08/21 04:59:50;;;;;;;1.30;1.20;;;13.60;99.90;;;;;;5074334;28;20656;-81
2022/08/21 05:02:17;;;;;;;2.00;1.60;;;13.60;99.90;;;;;;5074348;28;20660;-83
2022/08/21 05:04:47;;;;;;;1.23;1.10;;;13.80;99.90;;;;;;5077373;28;20724;-82
2022/08/21 05:07:19;;;;;;;1.13;1.10;;;13.80;99.40;;;;;;5071704;28;20629;-82
2022/08/21 05:09:47;;;;;;;1.20;1.10;;;13.90;98.90;;;;;;5082037;28;20618;-80
2022/08/21 05:12:14;;;;;;;1.70;1.60;;;13.90;99.20;;;;;;5068058;28;20618;-85
2022/08/21 05:14:42;;;;;;;1.60;1.50;;;13.90;98.80;;;;;;5086949;28;20983;-82
2022/08/21 05:17:09;;;;;;;2.63;1.60;;;13.90;99.60;;;;;;5087360;28;20721;-81
2022/08/21 05:19:36;;;;;;;1.23;1.13;;;13.90;99.90;;;;;;5068064;28;20658;-83
2022/08/21 05:22:03;;;;;;;2.17;1.40;;;13.90;99.90;;;;;;5067501;28;20747;-82
2022/08/21 05:24:31;;;;;;;2.10;1.17;;;13.90;99.90;;;;;;5068533;28;20660;-85
2022/08/21 05:26:58;;;;;;;1.87;1.77;;;13.90;99.90;;;;;;5080388;28;20613;-82
2022/08/21 05:29:25;;;;;;;2.60;1.53;;;13.90;99.90;;;;;;5069334;28;20652;-80
2022/08/21 05:31:52;;;;;;;1.93;1.53;;;14.00;99.90;;;;;;5086678;28;20731;-82
2022/08/21 05:34:21;;;;;;;3.60;1.37;;;14.20;99.90;;;;;;5072317;28;20628;-81
2022/08/21 05:36:48;;;;;;;1.40;1.30;;;14.20;99.90;;;;;;5069026;28;20755;-83
2022/08/21 05:39:15;;;;;;;1.23;1.13;;;14.40;99.90;;;;;;5085024;28;21228;-84
2022/08/21 05:41:44;;;;;;;1.90;1.43;;;14.40;99.90;;;;;;5082235;28;21061;-81
2022/08/21 05:44:11;;;;;;;1.07;1.07;;;14.50;99.90;;;;;;5085946;28;20613;-83
2022/08/21 05:46:38;;;;;;;1.60;1.50;;;14.50;99.90;;;;;;5066751;28;20637;-81
2022/08/21 05:49:04;;;;;;;1.30;1.20;;;14.60;99.90;;;;;;5066787;28;21058;-83
2022/08/21 05:51:31;;;;;;;1.13;1.10;;;14.60;99.90;;;;;;5078956;28;20713;-81
2022/08/21 05:53:58;;;;;;;1.73;0.90;;;14.70;99.90;;;;;;5067138;28;20624;-83
2022/08/21 05:56:25;;;;;;;2.73;2.00;;;14.70;99.90;;;;;;5067085;28;20669;-81
2022/08/21 05:58:53;;;;;;;2.73;1.70;;;14.80;99.90;;;;;;5067392;28;21221;-83
2022/08/21 06:01:20;;;;;;;1.20;1.00;;;14.90;99.90;;;;;;5086498;28;20620;-82
2022/08/21 06:03:47;;;;;;;2.03;1.67;;;15.10;99.90;;;;;;5084578;28;20668;-85
2022/08/21 06:06:14;;;;;;;1.60;1.50;;;15.20;99.90;;;;;;5067499;28;21162;-83
2022/08/21 06:08:41;;;;;;;3.03;0.90;;;15.30;99.90;;;;;;5089410;28;20960;-85
2022/08/21 06:11:10;;;;;;;1.73;1.30;;;15.30;99.90;;;;;;5073158;28;20712;-83
2022/08/21 06:13:38;;;;;;;1.70;1.60;;;15.50;99.90;;;;;;5081623;28;20614;-84
2022/08/21 06:16:09;;;;;;;2.60;1.80;;;15.60;99.90;;;;;;5070542;28;20657;-82
2022/08/21 06:18:37;;;;;;;4.00;1.70;;;15.80;99.40;;;;;;5069889;28;20640;-83
2022/08/21 06:21:05;;;;;;;1.60;1.50;;;16.10;97.60;;;;;;5084748;28;20663;-81
2022/08/21 06:23:32;;;;;;;1.67;1.57;;;16.30;97.00;;;;;;5088381;28;20670;-82
2022/08/21 06:25:59;;;;;;;2.60;2.37;;;16.40;96.20;;;;;;5079266;28;20625;-82
2022/08/21 06:28:26;;;;;;;2.13;1.60;;;16.50;95.80;;;;;;5072319;28;20728;-84
2022/08/21 06:30:53;;;;;;;1.97;1.87;;;16.50;96.00;;;;;;5090131;28;21137;-81
2022/08/21 06:33:23;;;;;;;2.20;1.80;;;16.70;95.20;;;;;;5088558;28;20641;-82
2022/08/21 06:35:50;;;;;;;1.73;1.57;;;16.80;96.10;;;;;;5073728;28;20648;-82
2022/08/21 06:38:17;;;;;;;2.13;1.60;;;16.70;96.30;;;;;;5073056;28;20628;-82
2022/08/21 06:40:44;;;;;;;1.57;1.47;;;16.70;96.90;;;;;;5089311;28;20656;-82
2022/08/21 06:43:13;;;;;;;2.60;1.80;;;16.70;96.50;;;;;;5084606;28;20672;-83
2022/08/21 06:45:40;;;;;;;1.50;1.40;;;16.70;95.80;;;;;;5073349;28;20659;-82
2022/08/21 06:48:07;;;;;;;1.70;1.60;;;16.90;95.80;;;;;;5088523;28;20624;-82
2022/08/21 06:50:36;;;;;;;2.03;1.63;;;17.00;95.70;;;;;;5079188;28;20633;-83
2022/08/21 06:53:05;;;;;;;3.30;1.17;;;17.10;95.90;;;;;;5071915;28;20622;-84
2022/08/21 06:55:32;;;;;;;8.03;1.73;;;17.10;94.80;;;;;;5069622;28;20626;-82
2022/08/21 06:58:00;;;;;;;2.67;1.87;;;17.30;94.00;;;;;;5075472;28;20679;-82
2022/08/21 07:00:27;;;;;;;4.23;1.70;;;17.30;94.40;;;;;;5080939;28;21225;-82
2022/08/21 07:02:54;;;;;;;1.87;1.70;;;17.30;94.40;;;;;;5078014;28;20692;-84
2022/08/21 07:05:21;;;;;;;1.77;1.50;;;17.50;92.90;;;;;;5076504;28;20625;-81
2022/08/21 07:07:49;;;;;;;1.27;1.27;;;17.70;92.90;;;;;;5067869;28;21098;-82
2022/08/21 07:10:16;;;;;;;1.73;1.50;;;17.80;93.60;;;;;;5079442;28;20645;-83
2022/08/21 07:12:43;;;;;;;1.53;1.40;;;17.80;93.10;;;;;;5088033;28;20984;-84
2022/08/21 07:15:11;;;;;;;2.30;2.10;;;17.90;93.00;;;;;;5070166;28;20621;-82
2022/08/21 07:17:38;;;;;;;2.63;2.00;;;18.00;92.70;;;;;;5082340;28;20629;-82
2022/08/21 07:20:06;;;;;;;1.90;1.80;;;18.10;92.10;;;;;;5078721;28;20634;-82
2022/08/21 07:22:34;;;;;;;1.40;1.23;;;18.20;91.80;;;;;;5076583;28;20734;-82
2022/08/21 07:25:03;;;;;;;1.53;1.27;;;18.40;91.80;;;;;;5086719;28;20628;-82
2022/08/21 07:27:30;;;;;;;1.87;1.63;;;18.60;91.70;;;;;;5087187;28;20617;-82
2022/08/21 07:29:57;;;;;;;2.43;2.27;;;18.60;91.70;;;;;;5082016;28;20640;-82
2022/08/21 07:32:23;;;;;;;1.80;1.70;;;18.60;91.30;;;;;;5081224;28;20636;-82
2022/08/21 07:34:50;;;;;;;1.97;1.63;;;18.70;90.40;;;;;;5080967;28;20646;-82
2022/08/21 07:37:17;;;;;;;1.77;1.10;;;18.80;91.10;;;;;;5079522;28;20714;-82
2022/08/21 07:39:44;;;;;;;1.43;1.33;;;18.80;91.00;;;;;;5088002;28;20617;-83
2022/08/21 07:42:12;;;;;;;2.70;1.63;;;19.00;90.40;;;;;;5088481;28;20729;-83
2022/08/21 07:44:39;;;;;;;1.90;1.67;;;19.00;90.40;;;;;;5074134;28;21182;-83
2022/08/21 07:47:06;;;;;;;1.93;1.73;;;19.10;90.60;;;;;;5078009;28;21207;-82
2022/08/21 07:49:33;;;;;;;1.80;1.70;;;19.20;90.10;;;;;;5071616;28;20660;-82
2022/08/21 07:52:00;;;;;;;1.90;1.80;;;19.30;89.10;;;;;;5084460;28;20934;-83
2022/08/21 07:54:28;;;;;;;1.80;1.70;;;19.40;88.50;;;;;;5069533;28;20633;-82
2022/08/21 07:56:54;;;;;;;1.80;1.50;;;19.40;87.60;;;;;;5082233;28;20755;-82
2022/08/21 07:59:23;;;;;;;1.73;1.60;;;19.50;88.70;;;;;;5085009;28;20809;-82
2022/08/21 08:01:50;;;;;;;1.70;1.60;;;19.50;87.90;;;;;;5088141;28;20664;-82
2022/08/21 08:04:17;;;;;;;2.23;2.03;;;19.70;85.70;;;;;;5087202;28;21297;-82
2022/08/21 08:06:44;;;;;;;2.20;2.00;;;19.70;86.00;;;;;;5071310;28;20789;-82
2022/08/21 08:09:11;;;;;;;2.37;2.13;;;19.90;86.20;;;;;;5077955;28;20661;-82
2022/08/21 08:11:42;;;;;;;2.20;1.93;;;19.90;85.00;;;;;;5082234;28;20625;-82
2022/08/21 08:14:10;;;;;;;1.70;1.60;;;20.00;81.80;;;;;;5070746;28;21026;-82
2022/08/21 08:16:38;;;;;;;1.70;1.60;;;20.20;79.70;;;;;;5078633;28;20657;-82
2022/08/21 08:19:05;;;;;;;3.23;1.83;;;20.40;79.00;;;;;;5068197;28;20717;-82
2022/08/21 08:21:33;;;;;;;1.87;1.47;;;20.70;79.90;;;;;;5082619;28;20702;-83
2022/08/21 08:24:00;;;;;;;1.80;1.70;;;21.00;78.20;;;;;;5087073;28;20668;-83
2022/08/21 08:26:27;;;;;;;2.17;1.97;;;21.00;79.80;;;;;;5071472;28;20630;-82
2022/08/21 08:28:54;;;;;;;2.27;1.97;;;21.00;78.80;;;;;;5067715;28;20629;-84
2022/08/21 08:31:21;;;;;;;2.13;1.80;;;21.20;78.60;;;;;;5082082;28;20730;-83
2022/08/21 08:33:49;;;;;;;2.80;1.83;;;21.20;78.80;;;;;;5085688;28;20621;-82
2022/08/21 08:36:18;;;;;;;2.07;1.83;;;21.20;78.50;;;;;;5066934;28;20632;-83
2022/08/21 08:38:46;;;;;;;2.73;1.40;;;21.10;77.60;;;;;;5073810;28;20658;-83
2022/08/21 08:41:16;;;;;;;1.80;1.70;;;21.10;75.00;;;;;;5069997;28;20651;-83
2022/08/21 08:43:50;;;;;;;2.57;2.37;;;21.10;76.40;;;;;;5069083;28;20693;-83
2022/08/21 08:46:20;;;;;;;2.07;1.70;;;21.20;74.50;;;;;;5085054;28;20715;-83
2022/08/21 08:48:58;;;;;;;2.03;1.90;;;21.40;76.20;;;;;;5076124;28;21271;-83
2022/08/21 08:51:30;;;;;;;2.27;2.03;;;21.30;74.40;;;;;;5076037;28;21066;-83
2022/08/21 08:54:02;;;;;;;2.13;1.77;;;21.30;73.30;;;;;;5077368;28;20625;-83
2022/08/21 08:56:31;;;;;;;2.87;2.50;;;21.40;76.00;;;;;;5076504;28;20652;-83
2022/08/21 08:59:06;;;;;;;3.07;1.83;;;21.60;75.30;;;;;;5076508;28;20626;-83
2022/08/21 09:01:33;;;;;;;3.43;2.00;;;21.70;74.70;;;;;;5086568;28;20632;-82
2022/08/21 09:04:02;;;;;;;4.63;2.20;;;21.90;75.20;;;;;;5071886;28;21290;-84
2022/08/21 09:06:58;;;;;;;2.00;1.73;;;21.90;71.60;;;;;;5066465;28;20661;-83
2022/08/21 09:09:42;;;;;;;2.80;1.40;;;21.90;71.40;;;;;;5066769;28;20642;-84
2022/08/21 09:12:28;;;;;;;2.93;1.90;;;21.90;72.00;;;;;;5080039;28;20624;-83
2022/08/21 09:15:13;;;;;;;4.20;2.37;;;22.00;71.10;;;;;;5079609;28;20629;-82
2022/08/21 09:18:00;;;;;;;2.20;1.60;;;22.30;72.50;;;;;;5067168;28;20645;-83
2022/08/21 09:20:37;;;;;;;2.63;2.30;;;22.30;72.70;;;;;;5079341;28;20617;-83
2022/08/21 09:23:19;;;;;;;1.97;1.87;;;22.40;72.00;;;;;;5074273;28;20693;-84
2022/08/21 09:26:00;;;;;;;1.93;1.73;;;22.50;72.10;;;;;;5084051;28;20641;-83
2022/08/21 09:28:27;;;;;;;2.23;2.03;;;22.70;71.20;;;;;;5084640;28;20616;-83
2022/08/21 09:31:02;;;;;;;1.53;1.43;;;23.00;66.80;;;;;;5074980;28;20617;-83
2022/08/21 09:33:30;;;;;;;3.83;2.70;;;23.20;70.70;;;;;;5086712;28;20635;-85
2022/08/21 09:35:58;;;;;;;1.60;1.50;;;23.40;66.10;;;;;;5076293;28;20648;-83
2022/08/21 09:38:28;;;;;;;2.67;2.47;;;23.50;69.10;;;;;;5077557;28;21195;-83
2022/08/21 09:41:00;;;;;;;4.00;2.43;;;23.50;67.50;;;;;;5085910;28;21288;-83
2022/08/21 09:43:27;;;;;;;1.83;1.73;;;23.70;66.80;;;;;;5077375;28;20700;-82
2022/08/21 09:46:05;;;;;;;3.40;2.60;;;23.90;64.40;;;;;;5075254;28;20727;-83
2022/08/21 09:48:41;;;;;;;2.00;1.90;;;23.90;69.50;;;;;;5081449;28;20639;-84
2022/08/21 09:51:12;;;;;;;1.67;1.57;;;24.20;67.00;;;;;;5081779;28;20717;-84
2022/08/21 09:53:45;;;;;;;2.43;2.23;;;24.50;64.30;;;;;;5086903;28;20651;-83
2022/08/21 09:59:20;;;;;;;1.50;1.40;;;24.70;64.30;;;;;;5088464;28;20618;-83
2022/08/21 10:01:49;;;;;;;2.30;2.05;;;24.60;64.90;;;;;;5068760;28;20831;-81
2022/08/21 10:04:20;;;;;;;1.90;1.77;;;24.80;63.20;;;;;;5070111;28;20221;-82
2022/08/21 10:06:48;;;;;;;2.50;2.30;;;24.90;62.60;;;;;;5069162;28;20729;-83
2022/08/21 10:09:17;;;;;;;1.87;1.77;;;24.70;62.40;;;;;;5072834;28;20681;-85
2022/08/21 10:11:50;;;;;;;3.30;2.53;;;24.50;63.10;;;;;;5087860;28;20678;-84
2022/08/21 10:14:23;;;;;;;2.70;2.50;;;24.30;65.10;;;;;;5079116;28;20643;-83
2022/08/21 10:17:00;;;;;;;3.20;2.10;;;24.10;68.90;;;;;;5089244;28;20636;-83
2022/08/21 10:19:33;;;;;;;2.10;1.90;;;24.20;68.50;;;;;;5089806;28;20632;-83
2022/08/21 10:22:20;;;;;;;2.50;1.80;;;24.00;66.60;;;;;;5073871;28;20675;-83
2022/08/21 10:24:56;;;;;;;3.17;2.13;;;23.90;68.40;;;;;;5084515;28;20724;-83
2022/08/21 10:27:33;;;;;;;2.27;2.07;;;24.20;67.40;;;;;;5070607;28;20720;-83
2022/08/21 10:30:06;;;;;;;2.17;1.87;;;24.50;66.10;;;;;;5070191;28;20740;-82
2022/08/21 10:32:58;;;;;;;2.97;2.57;;;24.60;65.40;;;;;;5087436;28;20621;-83
2022/08/21 10:35:30;;;;;;;2.47;2.20;;;24.70;64.60;;;;;;5069204;28;20651;-82
2022/08/21 10:38:17;;;;;;;2.90;2.60;;;24.80;65.10;;;;;;5068999;28;20628;-83
2022/08/21 10:40:55;;;;;;;4.47;2.20;;;25.00;63.70;;;;;;5056923;28;20739;-83
2022/08/21 10:43:37;;;;;;;2.60;2.40;;;25.20;65.90;;;;;;5068582;28;20669;-83
2022/08/21 10:46:14;;;;;;;3.23;2.23;;;25.50;60.70;;;;;;5068835;28;20724;-83
2022/08/21 10:48:49;;;;;;;3.77;2.40;;;25.70;59.90;;;;;;5068359;28;20652;-82
2022/08/21 10:51:21;;;;;;;2.87;2.20;;;25.70;60.30;;;;;;5068652;28;20719;-83
2022/08/21 10:54:00;;;;;;;2.90;2.60;;;25.70;59.70;;;;;;5067508;28;20728;-83
2022/08/21 10:56:30;;;;;;;2.40;1.90;;;25.80;61.00;;;;;;5068547;28;20633;-83
2022/08/21 10:59:08;;;;;;;3.13;2.43;;;25.60;59.00;;;;;;5074595;28;20660;-83
2022/08/21 11:01:42;;;;;;;2.20;2.00;;;25.50;60.10;;;;;;5069411;28;20778;-83
2022/08/21 11:04:14;;;;;;;2.43;2.23;;;25.70;59.70;;;;;;5072450;28;20697;-83
2022/08/21 11:06:48;;;;;;;3.27;2.60;;;25.80;59.20;;;;;;5086247;28;20712;-82
2022/08/21 11:09:20;;;;;;;2.77;2.40;;;26.00;60.40;;;;;;5084681;28;20633;-84
2022/08/21 11:11:51;;;;;;;2.17;1.97;;;26.20;61.40;;;;;;5073308;28;20625;-83
2022/08/21 11:14:25;;;;;;;2.50;2.30;;;26.30;59.00;;;;;;5083878;28;20629;-83
2022/08/21 11:16:58;;;;;;;10.50;2.77;;;26.40;59.40;;;;;;5073241;28;20665;-83
2022/08/21 11:19:31;;;;;;;2.67;2.47;;;26.20;58.60;;;;;;5075253;28;20628;-83
2022/08/21 11:22:07;;;;;;;5.10;2.47;;;26.40;57.80;;;;;;5089627;28;20731;-83
2022/08/21 11:24:44;;;;;;;4.30;2.90;;;26.60;57.90;;;;;;5084917;28;20668;-85
2022/08/21 11:27:18;;;;;;;4.00;2.40;;;27.00;57.70;;;;;;5073376;28;20643;-83
2022/08/21 11:29:48;;;;;;;2.10;1.90;;;27.10;57.40;;;;;;5088645;28;20671;-83
2022/08/21 11:32:58;;;;;;;2.10;1.90;;;27.10;57.80;;;;;;5074511;28;21169;-83
2022/08/21 11:35:34;;;;;;;2.37;2.17;;;27.30;56.30;;;;;;5081016;28;20720;-83
2022/08/21 11:38:14;;;;;;;2.30;2.10;;;27.50;55.20;;;;;;5081622;28;20704;-84
2022/08/21 11:41:03;;;;;;;1.93;1.83;;;27.60;55.30;;;;;;5068816;28;20626;-83
2022/08/21 11:43:38;;;;;;;2.30;2.10;;;27.80;55.30;;;;;;5083291;28;21432;-83
2022/08/21 11:46:20;;;;;;;2.27;2.10;;;28.00;54.40;;;;;;5080536;28;20625;-83
2022/08/21 11:49:10;;;;;;;2.40;2.20;;;28.20;55.00;;;;;;5069068;28;21175;-84
2022/08/21 11:51:41;;;;;;;3.40;1.90;;;28.30;55.90;;;;;;5068368;28;20638;-83
2022/08/21 11:54:19;;;;;;;2.60;1.87;;;28.10;53.40;;;;;;5068810;28;20628;-84
2022/08/21 11:56:53;;;;;;;3.23;2.07;;;28.20;54.10;;;;;;5069338;28;20633;-84
2022/08/21 11:59:33;;;;;;;1.70;1.60;;;28.20;54.40;;;;;;5068489;28;20749;-84
2022/08/21 12:02:01;;;;;;;1.83;1.73;;;27.70;53.30;;;;;;5084168;28;20716;-83
2022/08/21 12:04:30;;;;;;;2.20;2.00;;;27.20;54.30;;;;;;5085091;28;20673;-83
2022/08/21 12:06:57;;;;;;;3.60;1.87;;;27.10;55.70;;;;;;5078676;28;20660;-83
2022/08/21 12:09:36;;;;;;;2.30;1.87;;;26.90;54.90;;;;;;5075350;28;21198;-83
2022/08/21 12:12:11;;;;;;;1.90;1.80;;;26.70;55.90;;;;;;5074484;28;20991;-84
2022/08/21 12:14:41;;;;;;;1.93;1.83;;;26.30;55.60;;;;;;5069239;28;21025;-83
2022/08/21 12:17:17;;;;;;;2.17;1.87;;;26.10;57.40;;;;;;5075810;28;21199;-82
2022/08/21 12:19:45;;;;;;;1.70;1.60;;;25.80;58.30;;;;;;5077883;28;20625;-84
2022/08/21 12:22:14;;;;;;;2.10;2.00;;;25.60;58.60;;;;;;5067080;28;20723;-84
2022/08/21 12:24:43;;;;;;;2.23;2.03;;;25.50;61.80;;;;;;5069219;28;21503;-85
2022/08/21 12:27:29;;;;;;;2.70;2.30;;;25.20;59.30;;;;;;5075363;28;20732;-83
2022/08/21 12:30:00;;;;;;;2.50;2.30;;;25.00;59.90;;;;;;5075443;28;20639;-83
2022/08/21 12:32:29;;;;;;;2.10;1.93;;;25.00;58.60;;;;;;5086303;28;20624;-83
2022/08/21 12:35:06;;;;;;;2.60;2.10;;;25.10;59.70;;;;;;5078116;28;20629;-84
2022/08/21 12:37:40;;;;;;;1.90;1.80;;;25.70;58.20;;;;;;5068064;28;20617;-84
2022/08/21 12:40:14;;;;;;;2.53;1.63;;;25.80;59.50;;;;;;5072266;28;20631;-84
2022/08/21 12:42:49;;;;;;;2.20;2.00;;;25.60;57.80;;;;;;5074347;28;20682;-85
2022/08/21 12:45:21;;;;;;;2.90;1.90;;;26.50;59.40;;;;;;5071402;28;20667;-84
2022/08/21 12:47:52;;;;;;;1.93;1.80;;;28.10;56.50;;;;;;5078852;28;20616;-85
2022/08/21 12:50:24;;;;;;;2.53;2.33;;;28.50;52.50;;;;;;5067095;28;20631;-84
2022/08/21 12:52:59;;;;;;;1.53;1.33;;;28.20;51.80;;;;;;5080147;28;20628;-84
2022/08/21 12:55:31;;;;;;;2.30;1.70;;;27.90;57.50;;;;;;5083498;28;20723;-85
2022/08/21 12:58:00;;;;;;;2.20;2.00;;;27.60;53.90;;;;;;5079607;28;20735;-86
2022/08/21 13:00:30;;;;;;;1.60;1.50;;;27.00;53.10;;;;;;5086020;28;20723;-85
2022/08/21 13:02:58;;;;;;;1.87;1.77;;;27.10;56.40;;;;;;5072149;28;20614;-86
2022/08/21 13:05:31;;;;;;;4.33;2.47;;;28.50;56.50;;;;;;5079968;28;20721;-85